Time;durP1;ratioP1;P1;durP2;ratioP2;P2;SDS_P1;SDS_P2;PMS_P1;PMS_P2;Temp;Humidity;BMP_temperature;BMP_pressure;BME280_temperature;BME280_humidity;BME280_pressure;Samples;Min_cycle;Max_cycle;Signal;HPM_P1;HPM_P2
2021/05/28 00:01:44;;;;;;;2.13;1.70;;;6.00;99.90;;;;;;5038334;28;20225;-74
2021/05/28 00:04:10;;;;;;;3.30;1.60;;;6.00;99.90;;;;;;5041782;28;20213;-74
2021/05/28 00:06:35;;;;;;;5.20;1.60;;;5.90;99.90;;;;;;5036017;28;20190;-74
2021/05/28 00:09:01;;;;;;;2.08;1.63;;;5.90;99.90;;;;;;5037668;28;20224;-74
2021/05/28 00:11:27;;;;;;;3.78;1.95;;;5.80;99.90;;;;;;5043967;28;20231;-74
2021/05/28 00:13:53;;;;;;;3.45;1.63;;;5.60;99.90;;;;;;5036339;28;20277;-74
2021/05/28 00:16:18;;;;;;;1.98;1.42;;;5.50;99.90;;;;;;5052702;28;20197;-74
2021/05/28 00:18:44;;;;;;;2.45;1.77;;;5.50;99.90;;;;;;5037529;28;20313;-74
2021/05/28 00:21:10;;;;;;;2.63;1.70;;;5.40;99.90;;;;;;5041348;28;20233;-75
2021/05/28 00:23:36;;;;;;;2.60;1.45;;;5.40;99.90;;;;;;5036216;28;20209;-75
2021/05/28 00:26:02;;;;;;;2.25;1.77;;;5.20;99.90;;;;;;5039660;28;20199;-75
2021/05/28 00:28:28;;;;;;;3.55;1.75;;;5.20;99.90;;;;;;5036033;28;20190;-74
2021/05/28 00:30:54;;;;;;;3.83;1.83;;;5.10;99.90;;;;;;5038369;28;20238;-74
2021/05/28 00:33:19;;;;;;;2.28;1.73;;;5.00;99.90;;;;;;5039131;28;20201;-74
2021/05/28 00:35:45;;;;;;;2.35;1.73;;;4.90;99.90;;;;;;5040508;28;20323;-74
2021/05/28 00:38:11;;;;;;;5.38;1.98;;;4.90;99.90;;;;;;5052504;28;20202;-75
2021/05/28 00:40:36;;;;;;;2.92;1.80;;;4.80;99.90;;;;;;5040530;28;20194;-74
2021/05/28 00:43:03;;;;;;;4.60;1.65;;;4.80;99.90;;;;;;5038806;28;20197;-75
2021/05/28 00:45:28;;;;;;;2.95;1.52;;;4.70;99.90;;;;;;5039884;28;20679;-73
2021/05/28 00:47:54;;;;;;;4.47;1.45;;;4.70;99.90;;;;;;5038904;28;20208;-73
2021/05/28 00:50:20;;;;;;;3.90;2.20;;;4.70;99.90;;;;;;5037797;28;20228;-74
2021/05/28 00:52:52;;;;;;;3.85;2.10;;;4.60;99.90;;;;;;5039231;28;20225;-74
2021/05/28 00:55:17;;;;;;;2.55;1.95;;;4.60;99.90;;;;;;5036868;28;20232;-74
2021/05/28 00:57:43;;;;;;;7.35;1.98;;;4.70;99.90;;;;;;5036078;28;20276;-74
2021/05/28 01:00:10;;;;;;;3.38;2.30;;;4.80;99.90;;;;;;5038519;28;20599;-74
2021/05/28 01:02:35;;;;;;;8.32;2.25;;;4.80;99.90;;;;;;5036420;28;20241;-73
2021/05/28 01:05:01;;;;;;;2.60;1.70;;;4.80;99.90;;;;;;5031927;28;20213;-73
2021/05/28 01:07:27;;;;;;;5.70;2.20;;;4.90;99.90;;;;;;5040771;28;20201;-74
2021/05/28 01:09:52;;;;;;;2.80;2.00;;;4.90;99.90;;;;;;5031356;28;20202;-73
2021/05/28 01:12:18;;;;;;;10.38;2.00;;;5.00;99.90;;;;;;5038930;28;20244;-73
2021/05/28 01:14:44;;;;;;;2.95;1.77;;;4.90;99.90;;;;;;5035538;28;20201;-74
2021/05/28 01:17:10;;;;;;;3.00;2.22;;;4.90;99.90;;;;;;5036095;28;20193;-73
2021/05/28 01:19:36;;;;;;;3.08;2.25;;;4.90;99.90;;;;;;5033974;28;20197;-73
2021/05/28 01:22:06;;;;;;;2.67;2.05;;;4.80;99.90;;;;;;5032657;28;20224;-73
2021/05/28 01:24:32;;;;;;;4.43;1.95;;;4.70;99.90;;;;;;5032347;28;20210;-73
2021/05/28 01:26:58;;;;;;;2.95;1.90;;;4.50;99.90;;;;;;5036425;28;20704;-76
2021/05/28 01:29:24;;;;;;;3.78;2.20;;;4.50;99.90;;;;;;5032970;28;20205;-73
2021/05/28 01:31:49;;;;;;;2.63;1.90;;;4.40;99.90;;;;;;5031404;28;20197;-74
2021/05/28 01:34:15;;;;;;;4.22;1.85;;;4.30;99.90;;;;;;5033784;28;20209;-73
2021/05/28 01:36:41;;;;;;;6.03;1.95;;;4.30;99.90;;;;;;5035905;28;20247;-73
2021/05/28 01:39:07;;;;;;;4.70;2.25;;;4.30;99.90;;;;;;5040624;28;20224;-74
2021/05/28 01:41:32;;;;;;;6.18;1.88;;;4.20;99.90;;;;;;5039731;28;20528;-73
2021/05/28 01:43:58;;;;;;;4.60;1.92;;;4.20;99.90;;;;;;5035304;28;20213;-74
2021/05/28 01:46:25;;;;;;;8.00;2.47;;;4.20;99.90;;;;;;5034487;28;20201;-73
2021/05/28 01:48:51;;;;;;;2.83;1.90;;;4.10;99.90;;;;;;5040710;28;20193;-74
2021/05/28 01:51:17;;;;;;;2.47;1.80;;;4.10;99.90;;;;;;5037477;28;20801;-73
2021/05/28 01:53:43;;;;;;;3.30;2.13;;;4.00;99.90;;;;;;5036504;28;20668;-73
2021/05/28 01:56:08;;;;;;;2.90;2.05;;;4.00;99.90;;;;;;5036383;28;20703;-74
2021/05/28 01:58:34;;;;;;;4.38;2.45;;;3.90;99.90;;;;;;5039765;28;20202;-73
2021/05/28 02:01:00;;;;;;;3.38;1.80;;;3.80;99.90;;;;;;5029242;28;20300;-74
2021/05/28 02:03:26;;;;;;;2.63;1.60;;;3.80;99.90;;;;;;5036734;28;20846;-73
2021/05/28 02:05:52;;;;;;;2.53;1.80;;;3.70;99.90;;;;;;5031766;28;20291;-74
2021/05/28 02:08:18;;;;;;;4.90;2.17;;;3.70;99.90;;;;;;5038371;28;20194;-74
2021/05/28 02:10:45;;;;;;;3.05;2.28;;;3.70;99.90;;;;;;5032312;28;20220;-74
2021/05/28 02:13:11;;;;;;;3.38;2.10;;;3.70;99.90;;;;;;5035761;28;20197;-74
2021/05/28 02:15:37;;;;;;;3.08;2.30;;;3.60;99.90;;;;;;5031332;28;20189;-74
2021/05/28 02:18:05;;;;;;;2.30;1.95;;;3.60;99.90;;;;;;5038984;28;20190;-77
2021/05/28 02:20:31;;;;;;;2.67;1.98;;;3.50;99.90;;;;;;5032800;28;20198;-74
2021/05/28 02:22:57;;;;;;;3.35;2.05;;;3.50;99.90;;;;;;5034211;28;20180;-74
2021/05/28 02:25:23;;;;;;;2.47;1.80;;;3.50;99.90;;;;;;5034869;28;20205;-74
2021/05/28 02:27:48;;;;;;;2.30;1.95;;;3.40;99.90;;;;;;5034350;28;20276;-73
2021/05/28 02:30:14;;;;;;;6.22;2.30;;;3.40;99.90;;;;;;5032314;28;20315;-73
2021/05/28 02:32:41;;;;;;;5.88;2.20;;;3.40;99.90;;;;;;5031431;28;20193;-73
2021/05/28 02:35:09;;;;;;;3.58;2.08;;;3.40;99.90;;;;;;5033749;28;20197;-73
2021/05/28 02:37:35;;;;;;;3.13;2.22;;;3.40;99.90;;;;;;5035911;28;20209;-74
2021/05/28 02:40:00;;;;;;;4.28;2.03;;;3.40;99.90;;;;;;5039347;28;20876;-74
2021/05/28 02:42:26;;;;;;;3.90;2.03;;;3.40;99.90;;;;;;5037696;28;20224;-74
2021/05/28 02:44:53;;;;;;;4.00;2.13;;;3.40;99.90;;;;;;5033072;28;20750;-73
2021/05/28 02:47:20;;;;;;;3.72;1.88;;;3.50;99.90;;;;;;5038485;28;20189;-74
2021/05/28 02:49:47;;;;;;;2.47;1.90;;;3.50;99.90;;;;;;5037972;28;20436;-73
2021/05/28 02:52:14;;;;;;;3.95;2.35;;;3.50;99.90;;;;;;5038315;28;20235;-73
2021/05/28 02:54:39;;;;;;;5.20;2.13;;;3.60;99.90;;;;;;5030710;28;20194;-74
2021/05/28 02:57:05;;;;;;;6.22;2.20;;;3.60;99.90;;;;;;5034337;28;20194;-74
2021/05/28 02:59:31;;;;;;;2.67;1.90;;;3.60;99.90;;;;;;5036682;28;20205;-74
2021/05/28 03:01:57;;;;;;;3.55;2.15;;;3.60;99.90;;;;;;5035390;28;20645;-74
2021/05/28 03:04:23;;;;;;;2.53;1.88;;;3.60;99.90;;;;;;5034005;28;20961;-75
2021/05/28 03:06:48;;;;;;;4.70;2.20;;;3.60;99.90;;;;;;5037632;28;20220;-74
2021/05/28 03:09:14;;;;;;;3.67;2.20;;;3.60;99.90;;;;;;5048442;28;20203;-74
2021/05/28 03:11:40;;;;;;;4.03;2.28;;;3.60;99.90;;;;;;5049827;28;20193;-74
2021/05/28 03:14:05;;;;;;;3.08;2.03;;;3.70;99.90;;;;;;5035796;28;20208;-74
2021/05/28 03:16:32;;;;;;;3.22;2.30;;;3.80;99.90;;;;;;5035246;28;20733;-74
2021/05/28 03:19:05;;;;;;;5.45;2.30;;;3.80;99.90;;;;;;5035560;28;20208;-73
2021/05/28 03:23:58;;;;;;;2.83;2.22;;;4.00;99.90;;;;;;5041361;28;20213;-74
2021/05/28 03:26:26;;;;;;;6.72;2.53;;;4.10;99.90;;;;;;5038261;28;20197;-74
2021/05/28 03:28:53;;;;;;;5.43;3.00;;;4.20;99.90;;;;;;5037451;28;20193;-74
2021/05/28 03:31:20;;;;;;;4.20;2.30;;;4.30;99.90;;;;;;5036039;28;20199;-73
2021/05/28 03:33:46;;;;;;;6.53;2.42;;;4.30;99.90;;;;;;5043008;28;20197;-74
2021/05/28 03:36:13;;;;;;;3.33;2.40;;;4.40;99.90;;;;;;5042838;28;20456;-74
2021/05/28 03:38:39;;;;;;;3.35;2.35;;;4.50;99.90;;;;;;5043338;28;20255;-74
2021/05/28 03:41:05;;;;;;;3.67;2.13;;;4.60;99.90;;;;;;5039229;28;20198;-73
2021/05/28 03:43:31;;;;;;;3.08;2.20;;;4.70;99.90;;;;;;5042927;28;20205;-74
2021/05/28 03:45:57;;;;;;;8.32;2.38;;;4.70;99.90;;;;;;5040943;28;20194;-74
2021/05/28 03:48:22;;;;;;;4.30;2.45;;;4.80;99.90;;;;;;5041683;28;20559;-74
2021/05/28 03:50:48;;;;;;;3.90;2.40;;;4.90;99.90;;;;;;5042139;28;20204;-74
2021/05/28 03:53:14;;;;;;;4.90;2.83;;;5.00;99.90;;;;;;5039386;28;20811;-74
2021/05/28 03:55:40;;;;;;;3.97;2.80;;;5.00;99.90;;;;;;5038069;28;20198;-74
2021/05/28 03:58:05;;;;;;;4.32;2.72;;;5.10;99.90;;;;;;5039537;28;20608;-73
2021/05/28 04:00:31;;;;;;;3.38;2.67;;;5.20;99.90;;;;;;5035465;28;20622;-73
2021/05/28 04:02:57;;;;;;;5.18;2.75;;;5.30;99.90;;;;;;5039601;28;20231;-73
2021/05/28 04:05:23;;;;;;;4.13;2.72;;;5.40;99.90;;;;;;5033976;28;20205;-73
2021/05/28 04:07:48;;;;;;;5.80;2.90;;;5.70;99.90;;;;;;5035821;28;20225;-74
2021/05/28 04:10:15;;;;;;;8.18;2.60;;;5.90;99.90;;;;;;5041195;28;20201;-74
2021/05/28 04:12:41;;;;;;;4.40;3.28;;;6.10;99.90;;;;;;5038506;28;20912;-73
2021/05/28 04:15:08;;;;;;;6.93;3.05;;;6.30;99.90;;;;;;5033103;28;20202;-73
2021/05/28 04:17:34;;;;;;;5.60;2.72;;;6.50;99.90;;;;;;5035096;28;20210;-73
2021/05/28 04:20:00;;;;;;;4.43;2.97;;;6.60;99.90;;;;;;5030543;28;20634;-73
2021/05/28 04:22:26;;;;;;;3.92;2.80;;;6.70;99.90;;;;;;5034990;28;20296;-74
2021/05/28 04:24:52;;;;;;;5.90;3.10;;;6.90;99.90;;;;;;5033458;28;20707;-74
2021/05/28 04:27:18;;;;;;;6.20;3.35;;;7.00;99.90;;;;;;5039742;28;20182;-74
2021/05/28 04:29:44;;;;;;;7.20;2.88;;;7.10;99.90;;;;;;5038375;28;20204;-74
2021/05/28 04:32:09;;;;;;;4.68;3.10;;;7.30;99.90;;;;;;5031245;28;20273;-74
2021/05/28 04:34:37;;;;;;;3.08;2.63;;;7.40;99.90;;;;;;5026762;28;20228;-74
2021/05/28 04:37:03;;;;;;;3.47;2.88;;;7.50;99.90;;;;;;5031963;28;20232;-74
2021/05/28 04:39:28;;;;;;;4.13;2.70;;;7.60;99.90;;;;;;5032406;28;20653;-74
2021/05/28 04:41:55;;;;;;;4.32;3.03;;;7.70;99.90;;;;;;5027799;28;20202;-74
2021/05/28 04:44:21;;;;;;;6.97;3.55;;;7.90;99.90;;;;;;5032519;28;20207;-74
2021/05/28 04:46:47;;;;;;;5.55;3.05;;;8.00;99.90;;;;;;5031978;28;20279;-74
2021/05/28 04:49:12;;;;;;;4.22;2.70;;;8.20;99.90;;;;;;5033786;28;20198;-74
2021/05/28 04:51:38;;;;;;;3.40;2.83;;;8.30;99.90;;;;;;5035621;28;20572;-74
2021/05/28 04:54:05;;;;;;;3.65;2.90;;;8.60;99.90;;;;;;5026634;28;20202;-74
2021/05/28 04:56:30;;;;;;;4.88;3.33;;;8.80;99.90;;;;;;5030795;28;20230;-74
2021/05/28 04:58:56;;;;;;;4.55;2.80;;;9.10;99.90;;;;;;5032498;28;20309;-75
2021/05/28 05:01:22;;;;;;;3.72;2.60;;;9.40;99.90;;;;;;5030331;28;20202;-73
2021/05/28 05:03:48;;;;;;;2.88;2.40;;;9.70;99.90;;;;;;5034963;28;21689;-74
2021/05/28 05:06:14;;;;;;;5.13;2.97;;;10.00;99.90;;;;;;5030873;28;20202;-73
2021/05/28 05:08:39;;;;;;;8.40;2.90;;;10.30;99.90;;;;;;5028451;28;20263;-73
2021/05/28 05:11:05;;;;;;;3.13;2.50;;;10.40;99.90;;;;;;5031942;28;20604;-74
2021/05/28 05:13:31;;;;;;;4.63;2.95;;;10.60;99.90;;;;;;5026640;28;22515;-74
2021/05/28 05:15:56;;;;;;;4.93;2.90;;;10.70;99.90;;;;;;5026326;28;20259;-74
2021/05/28 05:18:24;;;;;;;3.30;2.65;;;10.80;99.90;;;;;;5031910;28;20495;-73
2021/05/28 05:20:50;;;;;;;3.22;2.65;;;10.90;99.90;;;;;;5047232;28;20201;-74
2021/05/28 05:23:16;;;;;;;4.45;2.78;;;11.00;99.90;;;;;;5033371;28;20204;-74
2021/05/28 05:25:42;;;;;;;3.75;2.85;;;11.10;99.90;;;;;;5032633;28;20659;-73
2021/05/28 05:28:07;;;;;;;3.35;2.70;;;11.30;99.90;;;;;;5028946;28;20201;-73
2021/05/28 05:30:33;;;;;;;3.45;2.70;;;11.40;99.90;;;;;;5027401;28;20279;-73
2021/05/28 05:32:59;;;;;;;4.03;2.67;;;11.50;99.90;;;;;;5028270;28;20201;-73
2021/05/28 05:35:25;;;;;;;3.58;2.63;;;11.60;99.90;;;;;;5033916;28;20601;-74
2021/05/28 05:37:51;;;;;;;3.53;2.60;;;11.70;99.90;;;;;;5034540;28;20552;-74
2021/05/28 05:40:17;;;;;;;3.33;2.45;;;11.80;99.90;;;;;;5032724;28;20277;-73
2021/05/28 05:42:43;;;;;;;4.80;2.90;;;11.90;99.90;;;;;;5053285;28;20236;-73
2021/05/28 05:45:10;;;;;;;3.53;2.53;;;12.00;99.90;;;;;;5031676;28;20205;-73
2021/05/28 05:47:36;;;;;;;4.50;2.70;;;12.20;99.90;;;;;;5031503;28;20247;-74
2021/05/28 05:50:04;;;;;;;6.20;2.80;;;12.40;99.90;;;;;;5033687;28;20240;-74
2021/05/28 05:52:29;;;;;;;4.72;2.70;;;12.60;99.90;;;;;;5033275;28;20200;-73
2021/05/28 05:54:56;;;;;;;4.57;2.50;;;13.10;99.90;;;;;;5031660;28;20220;-73
2021/05/28 05:57:22;;;;;;;4.38;2.80;;;13.70;99.90;;;;;;5029437;28;20201;-72
2021/05/28 05:59:48;;;;;;;2.60;2.40;;;14.00;99.90;;;;;;5032164;28;20197;-72
2021/05/28 06:02:13;;;;;;;3.88;2.50;;;14.20;99.90;;;;;;5025601;28;20262;-69
2021/05/28 06:04:39;;;;;;;3.85;2.55;;;14.40;99.90;;;;;;5032107;28;20236;-71
2021/05/28 06:07:05;;;;;;;3.63;2.45;;;15.10;99.90;;;;;;5032239;28;20220;-70
2021/05/28 06:09:30;;;;;;;2.70;2.33;;;14.90;99.90;;;;;;5029726;28;20202;-71
2021/05/28 06:11:58;;;;;;;2.78;2.10;;;14.60;99.90;;;;;;5031515;28;20877;-73
2021/05/28 06:14:24;;;;;;;3.17;2.20;;;14.80;99.90;;;;;;5029790;28;20213;-71
2021/05/28 06:16:49;;;;;;;3.65;2.40;;;14.90;99.90;;;;;;5035883;28;20281;-71
2021/05/28 06:19:15;;;;;;;3.72;2.47;;;14.90;99.90;;;;;;5028802;28;20202;-74
2021/05/28 06:21:41;;;;;;;4.97;2.45;;;14.80;99.90;;;;;;5028536;28;20229;-73
2021/05/28 06:24:08;;;;;;;3.17;2.45;;;15.00;99.90;;;;;;5033202;28;20374;-71
2021/05/28 06:26:34;;;;;;;2.42;2.22;;;15.10;99.90;;;;;;5032655;28;20198;-73
2021/05/28 06:29:02;;;;;;;5.20;2.40;;;15.40;99.90;;;;;;5031749;28;20193;-72
2021/05/28 06:31:28;;;;;;;4.70;2.10;;;15.50;99.90;;;;;;5034330;28;20220;-71
2021/05/28 06:33:54;;;;;;;6.82;2.35;;;15.60;98.40;;;;;;5031539;28;20676;-72
2021/05/28 06:36:20;;;;;;;3.67;2.38;;;15.60;97.10;;;;;;5036572;28;20208;-72
2021/05/28 06:38:45;;;;;;;3.50;2.28;;;15.40;98.60;;;;;;5033692;28;20205;-71
2021/05/28 06:41:11;;;;;;;3.95;2.15;;;15.40;95.50;;;;;;5034529;28;20239;-70
2021/05/28 06:43:37;;;;;;;2.80;2.20;;;15.40;95.90;;;;;;5030245;28;20214;-69
2021/05/28 06:46:03;;;;;;;2.47;2.00;;;15.30;95.90;;;;;;5029843;28;20197;-71
2021/05/28 06:48:28;;;;;;;2.65;2.17;;;15.50;96.80;;;;;;5030730;28;20582;-71
2021/05/28 06:50:54;;;;;;;6.03;2.33;;;15.70;94.70;;;;;;5034060;28;20202;-71
2021/05/28 06:53:20;;;;;;;2.20;1.90;;;15.60;93.80;;;;;;5035890;28;20696;-69
2021/05/28 06:55:46;;;;;;;4.35;1.90;;;15.30;94.40;;;;;;5040085;28;20216;-69
2021/05/28 06:58:11;;;;;;;4.00;1.90;;;15.50;94.70;;;;;;5033021;28;20239;-71
2021/05/28 07:00:38;;;;;;;3.72;1.83;;;15.50;94.30;;;;;;5036499;28;20789;-70
2021/05/28 07:03:04;;;;;;;2.35;2.00;;;15.60;96.10;;;;;;5029907;28;20658;-71
2021/05/28 07:05:29;;;;;;;2.88;2.03;;;16.10;94.30;;;;;;5032670;28;20296;-70
2021/05/28 07:07:56;;;;;;;4.68;2.10;;;16.20;94.00;;;;;;5036933;28;20209;-70
2021/05/28 07:10:23;;;;;;;2.08;1.80;;;16.40;93.40;;;;;;5034059;28;20284;-70
2021/05/28 07:12:49;;;;;;;4.72;1.90;;;16.50;92.20;;;;;;5036729;28;20580;-70
2021/05/28 07:15:16;;;;;;;5.50;2.10;;;16.70;92.50;;;;;;5032007;28;20296;-69
2021/05/28 07:17:42;;;;;;;1.95;1.77;;;16.60;90.20;;;;;;5038547;28;20243;-70
2021/05/28 07:20:08;;;;;;;2.33;1.70;;;16.40;91.10;;;;;;5043091;28;20202;-71
2021/05/28 07:22:34;;;;;;;2.78;1.90;;;16.30;92.10;;;;;;5032725;28;20660;-71
2021/05/28 07:25:00;;;;;;;2.60;2.08;;;16.30;90.80;;;;;;5036290;28;20220;-70
2021/05/28 07:27:26;;;;;;;2.10;1.90;;;16.40;92.00;;;;;;5036764;28;20201;-70
2021/05/28 07:29:52;;;;;;;4.70;2.20;;;16.50;89.20;;;;;;5029038;28;20193;-72
2021/05/28 07:32:18;;;;;;;3.35;2.05;;;16.60;90.90;;;;;;5033846;28;20305;-71
2021/05/28 07:34:44;;;;;;;2.65;2.03;;;16.80;89.30;;;;;;5037894;28;20243;-71
2021/05/28 07:37:10;;;;;;;2.67;2.00;;;17.00;90.60;;;;;;5033584;28;20202;-72
2021/05/28 07:39:36;;;;;;;3.65;1.80;;;17.20;85.90;;;;;;5049020;28;20688;-71
2021/05/28 07:42:04;;;;;;;2.60;1.77;;;17.10;84.80;;;;;;5030292;28;20563;-73
2021/05/28 07:44:30;;;;;;;2.83;1.80;;;17.40;90.20;;;;;;5038025;28;20545;-71
2021/05/28 07:46:56;;;;;;;1.60;1.50;;;17.80;81.00;;;;;;5033512;28;20186;-71
2021/05/28 07:49:22;;;;;;;2.00;1.73;;;17.90;85.80;;;;;;5040286;28;20247;-75
2021/05/28 07:51:49;;;;;;;3.80;1.65;;;18.10;83.30;;;;;;5032818;28;20529;-71
2021/05/28 07:54:16;;;;;;;2.35;1.52;;;18.30;83.10;;;;;;5035828;28;20198;-70
2021/05/28 07:56:42;;;;;;;2.42;1.65;;;18.10;81.40;;;;;;5030578;28;20201;-72
2021/05/28 07:59:08;;;;;;;2.40;1.77;;;18.00;79.00;;;;;;5038279;28;20212;-71
2021/05/28 08:01:34;;;;;;;2.47;1.80;;;18.10;83.10;;;;;;5031662;28;20205;-70
2021/05/28 08:04:00;;;;;;;2.33;1.80;;;18.40;79.30;;;;;;5031866;28;20778;-70
2021/05/28 08:06:26;;;;;;;1.98;1.42;;;18.30;80.80;;;;;;5039364;28;20205;-70
2021/05/28 08:08:52;;;;;;;3.17;1.58;;;18.40;77.10;;;;;;5036670;28;20802;-72
2021/05/28 08:11:19;;;;;;;2.45;1.52;;;18.60;78.10;;;;;;5032211;28;20595;-71
2021/05/28 08:13:45;;;;;;;3.53;1.50;;;18.60;73.90;;;;;;5039271;28;20290;-69
2021/05/28 08:16:10;;;;;;;2.08;1.50;;;18.80;74.60;;;;;;5033140;28;20592;-69
2021/05/28 08:18:36;;;;;;;1.65;1.42;;;18.70;76.10;;;;;;5032722;28;20282;-70
2021/05/28 08:21:05;;;;;;;1.65;1.48;;;18.70;71.40;;;;;;5035010;28;20684;-71
2021/05/28 08:23:31;;;;;;;3.70;1.50;;;18.60;73.30;;;;;;5033111;28;20202;-70
2021/05/28 08:25:57;;;;;;;1.90;1.45;;;18.90;75.60;;;;;;5039001;28;20251;-71
2021/05/28 08:28:24;;;;;;;1.42;1.25;;;18.80;74.60;;;;;;5032588;28;20228;-69
2021/05/28 08:30:49;;;;;;;7.10;1.77;;;18.80;72.40;;;;;;5029612;28;20247;-72
2021/05/28 08:33:15;;;;;;;1.67;1.40;;;18.80;72.40;;;;;;5028182;28;20201;-71
2021/05/28 08:35:42;;;;;;;2.00;1.50;;;18.90;69.60;;;;;;5039308;28;20212;-72
2021/05/28 08:38:09;;;;;;;1.48;1.30;;;18.90;71.20;;;;;;5033396;28;20211;-72
2021/05/28 08:40:35;;;;;;;6.55;1.45;;;19.00;65.90;;;;;;5036007;28;20273;-70
2021/05/28 08:43:02;;;;;;;2.50;1.42;;;19.00;65.70;;;;;;5029914;28;20748;-70
2021/05/28 08:45:35;;;;;;;3.55;1.48;;;18.90;66.30;;;;;;5038079;28;20214;-72
2021/05/28 08:48:01;;;;;;;1.75;1.30;;;19.00;70.10;;;;;;5033159;28;20515;-73
2021/05/28 08:50:28;;;;;;;1.92;1.40;;;19.10;69.80;;;;;;5036246;28;20198;-72
2021/05/28 08:52:54;;;;;;;3.25;1.52;;;19.60;71.90;;;;;;5032549;28;20323;-71
2021/05/28 08:55:20;;;;;;;1.35;1.25;;;19.80;66.40;;;;;;5033543;28;20269;-72
2021/05/28 08:57:45;;;;;;;2.30;1.42;;;20.10;66.40;;;;;;5037526;28;20575;-70
2021/05/28 09:00:12;;;;;;;2.03;1.30;;;20.40;66.50;;;;;;5032222;28;20670;-70
2021/05/28 09:02:40;;;;;;;1.73;1.30;;;20.40;58.90;;;;;;5030083;28;20842;-70
2021/05/28 09:05:12;;;;;;;1.70;1.40;;;20.30;60.10;;;;;;5034538;28;20691;-71
2021/05/28 09:07:40;;;;;;;3.85;1.30;;;20.30;62.30;;;;;;5039230;28;20193;-70
2021/05/28 09:10:31;;;;;;;1.35;1.20;;;20.20;61.00;;;;;;5040042;28;20247;-72
2021/05/28 09:13:20;;;;;;;2.58;1.17;;;20.50;59.90;;;;;;5034599;28;20229;-71
2021/05/28 09:16:03;;;;;;;1.20;1.10;;;20.40;59.80;;;;;;5026008;28;20195;-72
2021/05/28 09:18:44;;;;;;;1.30;1.10;;;20.40;58.60;;;;;;5032663;28;20250;-69
2021/05/28 09:21:11;;;;;;;1.45;1.20;;;20.70;61.60;;;;;;5034559;28;20201;-72
2021/05/28 09:23:40;;;;;;;2.38;1.30;;;21.00;60.40;;;;;;5036805;28;20653;-70
2021/05/28 09:26:09;;;;;;;1.30;1.10;;;21.20;56.60;;;;;;5028095;28;20676;-69
2021/05/28 09:28:41;;;;;;;1.25;1.05;;;21.10;59.70;;;;;;5033566;28;20288;-70
2021/05/28 09:31:13;;;;;;;3.65;1.23;;;21.10;59.40;;;;;;5031076;28;20194;-70
2021/05/28 09:33:46;;;;;;;1.80;1.13;;;21.00;57.30;;;;;;5036330;28;20186;-73
2021/05/28 09:36:33;;;;;;;2.97;1.23;;;21.20;58.20;;;;;;5035863;28;20194;-72
2021/05/28 09:39:08;;;;;;;7.95;1.10;;;21.50;57.80;;;;;;5037111;28;20307;-72
2021/05/28 09:41:48;;;;;;;1.27;1.13;;;21.60;55.70;;;;;;5033060;28;20715;-69
2021/05/28 09:44:21;;;;;;;1.98;1.10;;;21.60;57.70;;;;;;5035217;28;20212;-71
2021/05/28 09:47:11;;;;;;;1.75;1.00;;;21.70;59.00;;;;;;5036653;28;20219;-71
2021/05/28 09:49:47;;;;;;;1.70;1.38;;;22.20;56.50;;;;;;5033399;28;20196;-69
2021/05/28 09:52:22;;;;;;;2.95;1.30;;;22.20;53.00;;;;;;5034673;28;20197;-71
2021/05/28 09:55:03;;;;;;;1.60;1.20;;;22.20;56.00;;;;;;5035141;28;20573;-73
2021/05/28 09:57:35;;;;;;;1.80;1.00;;;22.50;54.20;;;;;;5034578;28;20213;-70
2021/05/28 10:00:06;;;;;;;3.08;1.23;;;22.40;57.50;;;;;;5030359;28;20202;-72
2021/05/28 10:02:43;;;;;;;4.25;1.30;;;22.40;54.40;;;;;;5034259;28;20198;-70
2021/05/28 10:05:09;;;;;;;5.57;1.33;;;22.20;54.20;;;;;;5032091;28;20201;-70
2021/05/28 10:07:37;;;;;;;4.45;1.30;;;22.40;53.90;;;;;;5035547;28;20213;-71
2021/05/28 10:10:04;;;;;;;2.13;1.40;;;22.10;52.60;;;;;;5031546;28;20189;-71
2021/05/28 10:12:30;;;;;;;1.10;1.00;;;22.00;54.30;;;;;;5029662;28;20202;-68
2021/05/28 10:14:56;;;;;;;1.23;1.05;;;22.30;53.80;;;;;;5028938;28;20228;-70
2021/05/28 10:17:21;;;;;;;1.73;1.40;;;22.60;53.80;;;;;;5031848;28;20616;-72
2021/05/28 10:19:49;;;;;;;2.03;1.30;;;22.50;55.80;;;;;;5031881;28;20213;-69
2021/05/28 10:22:21;;;;;;;2.30;1.50;;;22.30;55.70;;;;;;5032894;28;20197;-72
2021/05/28 10:24:47;;;;;;;3.28;1.35;;;22.00;55.30;;;;;;5032897;28;20201;-71
2021/05/28 10:27:20;;;;;;;1.60;1.30;;;22.30;58.00;;;;;;5030816;28;20260;-71
2021/05/28 10:29:49;;;;;;;1.30;1.20;;;22.80;57.80;;;;;;5029776;28;20193;-72
2021/05/28 10:32:15;;;;;;;1.65;1.30;;;23.20;54.80;;;;;;5030956;28;20599;-72
2021/05/28 10:35:06;;;;;;;4.05;1.27;;;23.30;55.00;;;;;;5030625;28;20209;-72
2021/05/28 10:37:32;;;;;;;2.80;1.60;;;23.10;51.80;;;;;;5032641;28;20193;-70
2021/05/28 10:39:58;;;;;;;1.55;1.20;;;23.10;54.70;;;;;;5024290;28;20209;-70
2021/05/28 10:42:24;;;;;;;6.43;1.27;;;23.50;53.20;;;;;;5024472;28;20221;-70
2021/05/28 10:44:50;;;;;;;2.80;1.20;;;23.30;52.50;;;;;;5031322;28;20209;-72
2021/05/28 10:47:16;;;;;;;1.58;1.20;;;23.30;53.80;;;;;;5034194;28;20239;-71
2021/05/28 10:50:05;;;;;;;4.40;1.25;;;23.40;51.90;;;;;;5034154;28;20627;-71
2021/05/28 10:52:36;;;;;;;2.95;1.20;;;23.40;51.80;;;;;;5026221;28;20296;-70
2021/05/28 10:55:12;;;;;;;2.58;1.27;;;23.60;54.40;;;;;;5032281;28;20197;-72
2021/05/28 10:57:47;;;;;;;1.25;1.15;;;24.00;52.70;;;;;;5032105;28;20812;-71
2021/05/28 11:00:27;;;;;;;1.77;1.33;;;24.00;50.70;;;;;;5032389;28;20683;-73
2021/05/28 11:02:58;;;;;;;2.60;1.30;;;23.60;50.60;;;;;;5032556;28;20478;-74
2021/05/28 11:05:47;;;;;;;1.77;1.23;;;23.20;52.70;;;;;;5029422;28;20842;-70
2021/05/28 11:08:45;;;;;;;3.17;1.50;;;22.90;54.60;;;;;;5026361;28;20215;-71
2021/05/28 11:11:35;;;;;;;1.77;1.20;;;23.00;53.60;;;;;;5024506;28;20288;-70
2021/05/28 11:14:04;;;;;;;2.70;1.40;;;23.20;54.70;;;;;;5030695;28;20194;-70
2021/05/28 11:16:53;;;;;;;4.22;1.30;;;23.70;55.50;;;;;;5029528;28;20201;-72
2021/05/28 11:19:25;;;;;;;2.47;1.33;;;24.00;52.10;;;;;;5030357;28;20201;-71
2021/05/28 11:21:54;;;;;;;2.28;1.40;;;23.80;52.40;;;;;;5027201;28;20258;-71
2021/05/28 11:24:21;;;;;;;1.65;1.42;;;24.00;52.60;;;;;;5029124;28;20208;-71
2021/05/28 11:26:47;;;;;;;1.40;1.30;;;23.90;53.90;;;;;;5031509;28;20506;-73
2021/05/28 11:29:20;;;;;;;5.32;1.35;;;24.20;54.30;;;;;;5034073;28;20597;-71
2021/05/28 11:31:46;;;;;;;3.28;1.40;;;24.40;51.40;;;;;;5033849;28;20205;-71
2021/05/28 11:34:12;;;;;;;1.45;1.35;;;24.30;53.10;;;;;;5037646;28;20213;-73
2021/05/28 11:36:41;;;;;;;1.92;1.20;;;24.60;54.10;;;;;;5035444;28;20209;-71
2021/05/28 11:39:23;;;;;;;4.82;1.20;;;24.90;51.70;;;;;;5037331;28;20296;-73
2021/05/28 11:42:00;;;;;;;2.40;1.33;;;24.70;52.90;;;;;;5038919;28;20194;-72
2021/05/28 11:44:28;;;;;;;4.13;1.48;;;24.40;50.30;;;;;;5036690;28;20193;-71
2021/05/28 11:46:54;;;;;;;2.42;1.30;;;24.10;57.40;;;;;;5038554;28;20558;-71
2021/05/28 11:49:22;;;;;;;2.53;1.45;;;24.70;54.60;;;;;;5039049;28;20194;-71
2021/05/28 11:52:07;;;;;;;2.15;1.23;;;25.40;54.50;;;;;;5037208;28;20233;-71
2021/05/28 11:54:35;;;;;;;1.77;1.27;;;25.60;52.30;;;;;;5039263;28;20202;-70
2021/05/28 11:57:09;;;;;;;1.95;1.20;;;25.60;50.00;;;;;;5035558;28;20254;-74
2021/05/28 11:59:55;;;;;;;1.70;1.30;;;25.40;51.20;;;;;;5038357;28;20201;-70
2021/05/28 12:02:40;;;;;;;2.10;1.30;;;25.30;53.90;;;;;;5036656;28;20193;-74
2021/05/28 12:05:16;;;;;;;1.83;1.33;;;25.20;52.80;;;;;;5036344;28;21072;-70
2021/05/28 12:07:42;;;;;;;2.33;1.40;;;25.20;52.90;;;;;;5037349;28;20272;-71
2021/05/28 12:10:11;;;;;;;1.33;1.10;;;25.30;52.50;;;;;;5034472;28;20578;-71
2021/05/28 12:12:50;;;;;;;2.38;1.25;;;24.70;50.30;;;;;;5037099;28;20728;-72
2021/05/28 12:15:17;;;;;;;2.65;1.42;;;24.40;52.00;;;;;;5033000;28;20205;-72
2021/05/28 12:17:42;;;;;;;2.22;1.30;;;24.50;49.30;;;;;;5030964;28;20252;-73
2021/05/28 12:20:20;;;;;;;2.08;1.35;;;24.50;51.20;;;;;;5032184;28;20197;-72
2021/05/28 12:23:07;;;;;;;1.92;1.20;;;24.70;53.50;;;;;;5031198;28;20679;-71
2021/05/28 12:25:41;;;;;;;1.42;1.10;;;24.80;52.20;;;;;;5044593;28;20267;-71
2021/05/28 12:28:19;;;;;;;1.73;1.10;;;24.70;52.50;;;;;;5032530;28;20201;-72
2021/05/28 12:30:54;;;;;;;2.92;1.17;;;25.10;51.70;;;;;;5035387;28;20208;-71
2021/05/28 12:33:25;;;;;;;1.92;1.20;;;25.20;53.10;;;;;;5035736;28;20190;-71
2021/05/28 12:35:53;;;;;;;2.08;1.17;;;25.40;53.20;;;;;;5037571;28;20197;-73
2021/05/28 12:38:20;;;;;;;2.10;1.30;;;25.90;51.60;;;;;;5030930;28;20208;-72
2021/05/28 12:40:47;;;;;;;1.33;1.23;;;25.70;50.40;;;;;;5034045;28;20201;-72
2021/05/28 12:43:29;;;;;;;2.70;1.10;;;25.50;51.00;;;;;;5034634;28;20206;-74
2021/05/28 12:45:56;;;;;;;2.33;1.20;;;26.10;50.20;;;;;;5023473;28;20209;-73
2021/05/28 12:48:40;;;;;;;1.33;1.10;;;26.00;47.20;;;;;;5026373;28;20658;-74
2021/05/28 12:51:08;;;;;;;4.45;1.15;;;25.90;50.50;;;;;;5031561;28;20284;-73
2021/05/28 12:53:38;;;;;;;2.50;1.25;;;26.10;51.40;;;;;;5031425;28;20254;-73
2021/05/28 12:56:05;;;;;;;1.35;1.00;;;26.40;50.80;;;;;;5033495;28;20189;-72
2021/05/28 12:58:32;;;;;;;4.15;1.10;;;26.90;48.80;;;;;;5034778;28;20679;-71